createdAt,value
2023-03-12T00:00:11.451Z,9.80
2023-03-12T00:02:58.602Z,7.10
2023-03-12T00:05:26.015Z,10.10
2023-03-12T00:07:53.992Z,15.80
2023-03-12T00:10:21.719Z,12.43
2023-03-12T00:12:48.783Z,12.43
2023-03-12T00:15:16.401Z,11.30
2023-03-12T00:17:43.839Z,11.05
2023-03-12T00:20:12.309Z,11.02
2023-03-12T00:22:40.288Z,15.32
2023-03-12T00:25:14.490Z,11.65
2023-03-12T00:27:43.922Z,12.07
2023-03-12T00:30:12.562Z,13.63
2023-03-12T00:32:40.208Z,13.98
2023-03-12T00:35:08.723Z,13.65
2023-03-12T00:37:38.242Z,11.90
2023-03-12T00:40:09.465Z,15.43
2023-03-12T00:42:36.783Z,13.73
2023-03-12T00:45:04.634Z,12.27
2023-03-12T00:47:31.755Z,16.80
2023-03-12T00:49:59.614Z,15.15
2023-03-12T00:52:27.244Z,13.50
2023-03-12T00:54:58.351Z,13.30
2023-03-12T00:57:26.160Z,18.33
2023-03-12T00:59:53.852Z,13.73
2023-03-12T01:02:21.525Z,13.05
2023-03-12T01:04:49.206Z,14.35
2023-03-12T01:07:16.719Z,17.42
2023-03-12T01:09:44.393Z,13.20
2023-03-12T01:12:11.833Z,15.88
2023-03-12T01:14:39.444Z,16.85
2023-03-12T01:17:06.892Z,15.55
2023-03-12T01:19:34.387Z,18.35
2023-03-12T01:22:02.066Z,17.58
2023-03-12T01:24:29.768Z,16.30
2023-03-12T01:26:57.545Z,13.77
2023-03-12T01:29:25.828Z,13.45
2023-03-12T01:31:53.019Z,11.65
2023-03-12T01:34:20.674Z,15.20
2023-03-12T01:36:48.163Z,12.15
2023-03-12T01:39:16.026Z,13.88
2023-03-12T01:41:43.110Z,12.50
2023-03-12T01:44:15.346Z,13.40
2023-03-12T01:46:44.418Z,10.98
2023-03-12T01:49:14.615Z,10.38
2023-03-12T01:51:59.025Z,9.55
2023-03-12T01:54:50.096Z,10.52
2023-03-12T01:57:23.962Z,10.38
2023-03-12T02:00:12.154Z,10.85
2023-03-12T02:02:56.638Z,9.80
2023-03-12T02:06:09.913Z,7.28
2023-03-12T02:08:55.906Z,10.48
2023-03-12T02:11:23.159Z,10.40
2023-03-12T02:13:50.244Z,11.63
2023-03-12T02:16:17.559Z,10.23
2023-03-12T02:18:47.326Z,10.35
2023-03-12T02:21:25.802Z,12.57
2023-03-12T02:24:08.515Z,10.75
2023-03-12T02:26:40.272Z,11.88
2023-03-12T02:29:10.812Z,8.52
2023-03-12T02:31:48.055Z,7.82
2023-03-12T02:34:16.040Z,14.75
2023-03-12T02:36:44.004Z,10.88
2023-03-12T02:39:13.091Z,9.77
2023-03-12T02:41:55.018Z,9.18
2023-03-12T02:44:43.870Z,9.43
2023-03-12T02:47:11.204Z,10.77
2023-03-12T02:49:38.427Z,9.98
2023-03-12T02:52:10.054Z,12.25
2023-03-12T02:54:45.481Z,8.82
2023-03-12T02:57:13.139Z,7.35
2023-03-12T02:59:40.493Z,9.65
2023-03-12T03:02:09.665Z,9.43
2023-03-12T03:04:36.609Z,7.25
2023-03-12T03:07:03.984Z,10.93
2023-03-12T03:09:31.017Z,9.77
2023-03-12T03:11:58.293Z,11.70
2023-03-12T03:14:25.506Z,10.02
2023-03-12T03:16:52.958Z,7.90
2023-03-12T03:19:20.217Z,10.07
2023-03-12T03:21:47.834Z,12.55
2023-03-12T03:24:15.183Z,10.57
2023-03-12T03:26:42.995Z,7.85
2023-03-12T03:29:10.295Z,6.47
2023-03-12T03:31:37.655Z,6.88
2023-03-12T03:34:05.081Z,13.25
2023-03-12T03:36:32.536Z,9.43
2023-03-12T03:38:59.960Z,7.97
2023-03-12T03:41:27.454Z,7.57
2023-03-12T03:43:59.184Z,8.80
2023-03-12T03:46:27.391Z,6.03
2023-03-12T03:48:54.814Z,6.93
2023-03-12T03:51:22.881Z,11.75
2023-03-12T03:53:51.160Z,7.47
2023-03-12T03:56:20.973Z,8.85
2023-03-12T03:58:49.154Z,7.82
2023-03-12T04:01:17.285Z,9.80
2023-03-12T04:03:45.874Z,10.27
2023-03-12T04:06:14.005Z,8.10
2023-03-12T04:08:41.530Z,13.23
2023-03-12T04:11:20.427Z,12.57
2023-03-12T04:13:49.640Z,12.25
2023-03-12T04:16:18.175Z,9.13
2023-03-12T04:18:45.358Z,8.32
2023-03-12T04:21:14.996Z,7.93
2023-03-12T04:23:42.196Z,9.88
2023-03-12T04:26:09.717Z,13.07
2023-03-12T04:28:37.796Z,5.22
2023-03-12T04:31:09.613Z,8.57
2023-03-12T04:33:55.111Z,7.53
2023-03-12T04:38:49.641Z,7.43
2023-03-12T04:41:18.184Z,7.82
2023-03-12T04:43:45.146Z,7.03
2023-03-12T04:46:12.542Z,8.93
2023-03-12T04:48:39.990Z,12.02
2023-03-12T04:51:07.398Z,10.90
2023-03-12T04:53:34.479Z,6.28
2023-03-12T04:56:01.705Z,6.00
2023-03-12T04:58:28.764Z,8.93
2023-03-12T05:00:55.961Z,8.48
2023-03-12T05:03:23.339Z,7.47
2023-03-12T05:05:50.802Z,8.75
2023-03-12T05:08:17.825Z,6.20
2023-03-12T05:10:45.704Z,5.95
2023-03-12T05:13:25.736Z,6.88
2023-03-12T05:15:53.292Z,8.38
2023-03-12T05:18:21.619Z,8.38
2023-03-12T05:21:16.527Z,8.57
2023-03-12T05:23:52.192Z,10.10
2023-03-12T05:26:29.973Z,7.25
2023-03-12T05:28:59.170Z,7.05
2023-03-12T05:31:27.714Z,8.95
2023-03-12T05:33:54.821Z,8.48
2023-03-12T05:36:22.109Z,5.45
2023-03-12T05:38:49.163Z,6.63
2023-03-12T05:41:27.995Z,7.25
2023-03-12T05:43:57.398Z,9.85
2023-03-12T05:46:27.121Z,7.63
2023-03-12T05:48:54.357Z,7.63
2023-03-12T05:51:22.243Z,8.98
2023-03-12T05:53:49.715Z,9.45
2023-03-12T05:56:19.414Z,14.13
2023-03-12T05:58:51.175Z,8.60
2023-03-12T06:01:27.230Z,9.15
2023-03-12T06:03:56.235Z,8.07
2023-03-12T06:06:25.727Z,7.00
2023-03-12T06:08:53.769Z,8.10
2023-03-12T06:11:21.654Z,10.10
2023-03-12T06:13:49.543Z,7.03
2023-03-12T06:16:22.163Z,9.80
2023-03-12T06:18:57.466Z,5.97
2023-03-12T06:21:29.419Z,7.68
2023-03-12T06:23:57.702Z,11.57
2023-03-12T06:26:31.720Z,8.35
2023-03-12T06:28:59.134Z,8.50
2023-03-12T06:31:27.492Z,9.85
2023-03-12T06:33:54.504Z,8.00
2023-03-12T06:36:23.512Z,6.90
2023-03-12T06:38:51.855Z,10.30
2023-03-12T06:41:21.258Z,8.35
2023-03-12T06:43:49.244Z,10.82
2023-03-12T06:46:25.527Z,10.05
2023-03-12T06:48:52.606Z,8.98
2023-03-12T06:51:20.055Z,8.13
2023-03-12T06:53:47.248Z,8.25
2023-03-12T06:56:15.118Z,9.02
2023-03-12T06:58:42.463Z,8.57
2023-03-12T07:01:10.061Z,10.73
2023-03-12T07:03:37.393Z,7.28
2023-03-12T07:06:05.361Z,7.90
2023-03-12T07:08:32.443Z,10.43
2023-03-12T07:11:07.117Z,9.43
2023-03-12T07:16:07.531Z,7.28
2023-03-12T07:18:35.078Z,7.55
2023-03-12T07:21:02.494Z,9.27
2023-03-12T07:23:29.716Z,11.15
2023-03-12T07:25:56.866Z,9.52
2023-03-12T07:28:23.876Z,11.57
2023-03-12T07:30:51.171Z,9.13
2023-03-12T07:33:21.908Z,7.85
2023-03-12T07:35:51.967Z,8.02
2023-03-12T07:38:20.868Z,7.70
2023-03-12T07:40:54.356Z,10.80
2023-03-12T07:43:22.682Z,7.75
2023-03-12T07:45:51.246Z,8.75
2023-03-12T07:48:22.134Z,9.40
2023-03-12T07:50:55.338Z,10.60
2023-03-12T07:53:22.460Z,8.90
2023-03-12T07:55:50.346Z,8.40
2023-03-12T07:58:18.220Z,10.13
2023-03-12T08:00:45.798Z,10.57
2023-03-12T08:03:13.686Z,8.02
2023-03-12T08:05:41.702Z,5.93
2023-03-12T08:08:09.298Z,8.65
2023-03-12T08:10:37.287Z,14.30
2023-03-12T08:13:04.510Z,8.25
2023-03-12T08:15:31.983Z,8.40
2023-03-12T08:17:59.556Z,11.82
2023-03-12T08:20:26.861Z,8.48
2023-03-12T08:22:53.922Z,10.30
2023-03-12T08:25:21.265Z,9.30
2023-03-12T08:27:48.398Z,6.85
2023-03-12T08:30:16.437Z,7.80
2023-03-12T08:32:43.534Z,5.88
2023-03-12T08:35:10.813Z,6.15
2023-03-12T08:37:38.068Z,5.82
2023-03-12T08:40:13.684Z,7.47
2023-03-12T08:42:46.129Z,7.63
2023-03-12T08:45:16.462Z,5.72
2023-03-12T08:47:44.841Z,6.82
2023-03-12T08:50:18.304Z,6.78
2023-03-12T08:52:48.661Z,6.25
2023-03-12T08:55:16.090Z,6.05
2023-03-12T08:57:43.067Z,5.38
2023-03-12T09:00:12.059Z,4.45
2023-03-12T09:02:39.477Z,5.95
2023-03-12T09:05:07.927Z,5.75
2023-03-12T09:07:35.779Z,10.63
2023-03-12T09:10:04.265Z,8.40
2023-03-12T09:12:32.647Z,6.15
2023-03-12T09:15:04.261Z,4.70
2023-03-12T09:17:32.687Z,4.55
2023-03-12T09:20:07.748Z,4.05
2023-03-12T09:22:39.908Z,4.03
2023-03-12T09:25:10.461Z,4.40
2023-03-12T09:27:40.125Z,5.65
2023-03-12T09:30:17.078Z,5.80
2023-03-12T09:32:45.792Z,6.47
2023-03-12T09:35:16.740Z,3.40
2023-03-12T09:37:50.112Z,5.93
2023-03-12T09:40:24.354Z,3.63
2023-03-12T09:43:08.439Z,5.00
2023-03-12T09:45:50.390Z,5.97
2023-03-12T09:48:33.500Z,5.60
2023-03-12T09:51:27.433Z,4.22
2023-03-12T09:54:05.195Z,25.40
2023-03-12T09:59:04.203Z,2.50
2023-03-12T10:01:44.576Z,3.70
2023-03-12T10:04:58.178Z,4.55
2023-03-12T10:08:17.489Z,6.80
2023-03-12T10:11:12.706Z,4.50
2023-03-12T10:14:28.371Z,4.07
2023-03-12T10:17:12.325Z,2.70
2023-03-12T10:20:14.951Z,4.78
2023-03-12T10:23:22.105Z,3.60
2023-03-12T10:26:22.536Z,6.28
2023-03-12T10:28:58.869Z,6.13
2023-03-12T10:31:54.462Z,9.52
2023-03-12T10:34:47.018Z,6.10
2023-03-12T10:37:28.275Z,7.40
2023-03-12T10:39:56.264Z,3.47
2023-03-12T10:42:28.796Z,3.67
2023-03-12T10:45:12.256Z,6.07
2023-03-12T10:47:52.071Z,2.58
2023-03-12T10:50:46.532Z,4.55
2023-03-12T10:53:33.284Z,5.03
2023-03-12T10:56:16.955Z,5.85
2023-03-12T10:58:52.008Z,3.80
2023-03-12T11:03:54.108Z,5.68
2023-03-12T11:06:27.813Z,3.88
2023-03-12T11:09:19.859Z,4.75
2023-03-12T11:11:51.188Z,4.03
2023-03-12T11:14:29.659Z,3.63
2023-03-12T11:16:58.089Z,5.75
2023-03-12T11:19:38.921Z,4.00
2023-03-12T11:22:16.406Z,7.28
2023-03-12T11:25:00.403Z,4.75
2023-03-12T11:27:48.365Z,3.90
2023-03-12T11:30:40.419Z,3.85
2023-03-12T11:33:11.433Z,4.25
2023-03-12T11:36:19.878Z,3.40
2023-03-12T11:39:03.340Z,5.18
2023-03-12T11:42:12.142Z,7.70
2023-03-12T11:45:15.838Z,3.90
2023-03-12T11:48:23.636Z,4.72
2023-03-12T11:51:22.075Z,3.38
2023-03-12T11:54:16.027Z,4.35
2023-03-12T11:57:00.001Z,2.65
2023-03-12T12:00:02.681Z,4.68
2023-03-12T12:03:05.344Z,3.42
2023-03-12T12:06:04.744Z,3.80
2023-03-12T12:08:46.645Z,8.38
2023-03-12T12:11:45.658Z,7.18
2023-03-12T12:14:46.114Z,4.72
2023-03-12T12:18:11.233Z,3.20
2023-03-12T12:20:48.981Z,2.40
2023-03-12T12:23:40.093Z,4.25
2023-03-12T12:26:34.550Z,6.15
2023-03-12T12:29:29.550Z,4.78
2023-03-12T12:31:59.847Z,3.85
2023-03-12T12:35:38.474Z,6.53
2023-03-12T12:38:25.452Z,4.82
2023-03-12T12:41:07.647Z,6.10
2023-03-12T12:43:49.464Z,8.05
2023-03-12T12:46:25.640Z,3.78
2023-03-12T12:49:14.597Z,4.07
2023-03-12T12:51:50.453Z,7.55
2023-03-12T12:55:00.804Z,6.30
2023-03-12T12:58:02.467Z,5.78
2023-03-12T13:00:57.826Z,4.22
2023-03-12T13:03:27.901Z,6.38
2023-03-12T13:06:05.733Z,5.55
2023-03-12T13:08:45.682Z,8.93
2023-03-12T13:11:20.355Z,3.78
2023-03-12T13:14:12.673Z,3.22
2023-03-12T13:16:47.122Z,5.22
2023-03-12T13:19:14.251Z,3.13
2023-03-12T13:22:22.714Z,6.15
2023-03-12T13:25:09.921Z,8.32
2023-03-12T13:27:41.687Z,6.53
2023-03-12T13:30:35.872Z,4.70
2023-03-12T13:33:18.805Z,5.38
2023-03-12T13:36:16.201Z,6.13
2023-03-12T13:39:08.222Z,4.55
2023-03-12T13:41:45.583Z,4.60
2023-03-12T13:44:27.563Z,4.30
2023-03-12T13:47:12.573Z,5.53
2023-03-12T13:49:59.490Z,7.78
2023-03-12T13:52:57.969Z,6.25
2023-03-12T13:55:49.979Z,5.07
2023-03-12T13:58:23.676Z,3.60
2023-03-12T14:01:00.122Z,4.43
2023-03-12T14:03:49.957Z,4.63
2023-03-12T14:06:24.684Z,5.03
2023-03-12T14:09:24.214Z,4.72
2023-03-12T14:12:06.563Z,3.38
2023-03-12T14:14:48.093Z,4.72
2023-03-12T14:17:29.480Z,6.13
2023-03-12T14:20:21.774Z,3.03
2023-03-12T14:22:58.358Z,6.15
2023-03-12T14:25:40.151Z,6.28
2023-03-12T14:28:22.407Z,7.63
2023-03-12T14:31:08.155Z,3.72
2023-03-12T14:34:02.014Z,10.48
2023-03-12T14:36:59.162Z,6.65
2023-03-12T14:39:58.039Z,14.98
2023-03-12T14:42:33.920Z,10.52
2023-03-12T14:45:19.345Z,8.82
2023-03-12T14:47:59.236Z,5.72
2023-03-12T14:50:40.746Z,4.07
2023-03-12T14:53:24.139Z,5.28
2023-03-12T14:56:24.445Z,5.35
2023-03-12T14:58:53.448Z,9.32
2023-03-12T15:01:39.592Z,4.55
2023-03-12T15:04:17.253Z,4.70
2023-03-12T15:06:56.797Z,4.43
2023-03-12T15:09:36.206Z,6.38
2023-03-12T15:12:24.959Z,5.97
2023-03-12T15:15:08.407Z,4.15
2023-03-12T15:17:37.448Z,2.75
2023-03-12T15:20:14.483Z,4.50
2023-03-12T15:22:44.718Z,5.00
2023-03-12T15:25:26.517Z,4.90
2023-03-12T15:28:26.099Z,4.53
2023-03-12T15:31:19.024Z,4.95
2023-03-12T15:34:08.100Z,5.20
2023-03-12T15:36:47.887Z,3.55
2023-03-12T15:39:45.019Z,4.57
2023-03-12T15:42:24.119Z,3.97
2023-03-12T15:45:02.438Z,2.83
2023-03-12T15:47:34.244Z,2.45
2023-03-12T15:50:19.728Z,5.82
2023-03-12T15:53:12.073Z,3.28
2023-03-12T15:55:41.912Z,6.53
2023-03-12T15:58:33.687Z,11.82
2023-03-12T16:01:28.301Z,6.40
2023-03-12T16:03:55.908Z,5.63
2023-03-12T16:06:36.899Z,6.50
2023-03-12T16:09:27.193Z,3.72
2023-03-12T16:11:55.805Z,7.30
2023-03-12T16:14:36.349Z,5.13
2023-03-12T16:17:03.717Z,5.18
2023-03-12T16:19:40.763Z,5.78
2023-03-12T16:22:08.020Z,6.57
2023-03-12T16:24:35.332Z,4.00
2023-03-12T16:27:07.508Z,4.70
2023-03-12T16:29:42.254Z,2.95
2023-03-12T16:32:17.903Z,3.25
2023-03-12T16:34:49.401Z,2.72
2023-03-12T16:37:16.423Z,5.47
2023-03-12T16:39:46.382Z,2.80
2023-03-12T16:42:19.494Z,3.85
2023-03-12T16:44:47.941Z,5.32
2023-03-12T16:47:18.642Z,7.95
2023-03-12T16:49:46.076Z,5.30
2023-03-12T16:52:19.426Z,3.47
2023-03-12T16:54:54.064Z,4.25
2023-03-12T16:57:45.333Z,4.40
2023-03-12T17:00:26.991Z,6.88
2023-03-12T17:03:06.817Z,5.80
2023-03-12T17:05:34.201Z,3.22
2023-03-12T17:08:01.343Z,5.82
2023-03-12T17:10:28.557Z,4.40
2023-03-12T17:12:56.786Z,4.13
2023-03-12T17:15:30.907Z,5.55
2023-03-12T17:18:03.194Z,4.20
2023-03-12T17:20:36.321Z,6.68
2023-03-12T17:23:06.075Z,4.28
2023-03-12T17:25:38.540Z,3.90
2023-03-12T17:28:06.188Z,7.25
2023-03-12T17:30:35.025Z,3.00
2023-03-12T17:33:12.416Z,3.20
2023-03-12T17:35:40.695Z,4.15
2023-03-12T17:38:09.050Z,2.97
2023-03-12T17:40:45.259Z,3.53
2023-03-12T17:43:12.974Z,5.60
2023-03-12T17:45:42.094Z,8.10
2023-03-12T17:48:09.623Z,4.78
2023-03-12T17:50:37.653Z,6.50
2023-03-12T17:53:04.975Z,5.13
2023-03-12T17:55:32.590Z,10.20
2023-03-12T17:57:59.663Z,8.70
2023-03-12T18:00:26.972Z,7.32
2023-03-12T18:02:54.126Z,5.82
2023-03-12T18:05:21.994Z,4.65
2023-03-12T18:07:49.885Z,8.68
2023-03-12T18:10:17.986Z,5.45
2023-03-12T18:12:44.940Z,5.63
2023-03-12T18:15:14.870Z,4.95
2023-03-12T18:17:50.105Z,7.45
2023-03-12T18:22:59.572Z,6.20
2023-03-12T18:25:26.931Z,5.80
2023-03-12T18:27:55.775Z,6.47
2023-03-12T18:30:33.462Z,6.97
2023-03-12T18:33:00.508Z,6.47
2023-03-12T18:35:29.194Z,6.18
2023-03-12T18:37:57.422Z,7.05
2023-03-12T18:40:25.258Z,4.82
2023-03-12T18:42:59.409Z,4.85
2023-03-12T18:45:29.450Z,6.07
2023-03-12T18:47:56.863Z,4.60
2023-03-12T18:50:24.410Z,5.70
2023-03-12T18:52:51.399Z,5.72
2023-03-12T18:55:18.873Z,5.45
2023-03-12T18:57:48.061Z,5.70
2023-03-12T19:00:17.877Z,3.95
2023-03-12T19:02:48.418Z,4.22
2023-03-12T19:05:20.626Z,5.25
2023-03-12T19:07:48.155Z,4.30
2023-03-12T19:10:18.242Z,3.25
2023-03-12T19:12:52.586Z,3.58
2023-03-12T19:15:24.500Z,4.88
2023-03-12T19:17:52.841Z,3.72
2023-03-12T19:20:21.579Z,3.67
2023-03-12T19:22:48.798Z,3.60
2023-03-12T19:25:16.506Z,3.83
2023-03-12T19:27:43.876Z,3.50
2023-03-12T19:30:22.096Z,3.05
2023-03-12T19:32:49.078Z,3.70
2023-03-12T19:35:16.492Z,2.97
2023-03-12T19:37:43.635Z,3.95
2023-03-12T19:40:13.424Z,3.90
2023-03-12T19:42:40.851Z,3.95
2023-03-12T19:45:09.587Z,3.80
2023-03-12T19:47:38.777Z,3.25
2023-03-12T19:50:13.588Z,4.57
2023-03-12T19:52:40.476Z,3.92
2023-03-12T19:55:09.047Z,4.68
2023-03-12T19:57:36.234Z,3.00
2023-03-12T20:00:10.040Z,5.28
2023-03-12T20:02:39.372Z,7.57
2023-03-12T20:05:09.340Z,2.80
2023-03-12T20:07:39.483Z,3.92
2023-03-12T20:10:13.172Z,6.82
2023-03-12T20:12:44.939Z,3.50
2023-03-12T20:15:13.830Z,9.75
2023-03-12T20:17:41.322Z,4.30
2023-03-12T20:20:09.742Z,3.28
2023-03-12T20:22:37.373Z,3.45
2023-03-12T20:25:06.874Z,4.30
2023-03-12T20:27:34.396Z,3.80
2023-03-12T20:30:03.597Z,5.22
2023-03-12T20:32:31.001Z,3.15
2023-03-12T20:34:58.329Z,3.65
2023-03-12T20:37:25.626Z,3.90
2023-03-12T20:39:52.937Z,3.40
2023-03-12T20:42:20.137Z,4.85
2023-03-12T20:44:47.473Z,3.80
2023-03-12T20:47:14.467Z,4.50
2023-03-12T20:49:41.601Z,4.65
2023-03-12T20:52:08.563Z,3.80
2023-03-12T20:54:35.708Z,4.20
2023-03-12T20:57:02.577Z,3.83
2023-03-12T20:59:29.693Z,4.20
2023-03-12T21:01:56.810Z,3.53
2023-03-12T21:04:24.105Z,3.45
2023-03-12T21:06:51.861Z,4.28
2023-03-12T21:09:22.313Z,4.30
2023-03-12T21:11:50.528Z,4.07
2023-03-12T21:14:17.830Z,4.80
2023-03-12T21:16:44.848Z,4.15
2023-03-12T21:19:12.098Z,4.55
2023-03-12T21:21:39.248Z,4.00
2023-03-12T21:24:06.918Z,4.93
2023-03-12T21:26:33.978Z,4.25
2023-03-12T21:29:01.228Z,5.00
2023-03-12T21:31:28.303Z,5.05
2023-03-12T21:33:59.428Z,6.30
2023-03-12T21:36:26.985Z,5.55
2023-03-12T21:38:54.297Z,5.80
2023-03-12T21:41:22.005Z,5.90
2023-03-12T21:43:49.333Z,6.68
2023-03-12T21:46:20.479Z,6.90
2023-03-12T21:48:48.373Z,5.38
2023-03-12T21:51:17.876Z,7.85
2023-03-12T21:53:45.642Z,7.07
2023-03-12T21:56:13.012Z,7.38
2023-03-12T21:58:40.298Z,8.15
2023-03-12T22:01:14.994Z,6.55
2023-03-12T22:03:44.789Z,7.80
2023-03-12T22:06:13.720Z,9.23
2023-03-12T22:08:42.690Z,7.22
2023-03-12T22:11:10.667Z,9.13
2023-03-12T22:13:38.336Z,9.93
2023-03-12T22:16:09.097Z,11.13
2023-03-12T22:18:43.861Z,7.55
2023-03-12T22:21:22.486Z,12.03
2023-03-12T22:23:53.413Z,10.15
2023-03-12T22:26:23.705Z,6.55
2023-03-12T22:28:54.785Z,8.43
2023-03-12T22:31:23.949Z,9.75
2023-03-12T22:33:51.834Z,12.40
2023-03-12T22:36:19.897Z,12.43
2023-03-12T22:38:47.843Z,11.27
2023-03-12T22:41:24.977Z,8.68
2023-03-12T22:43:56.008Z,7.05
2023-03-12T22:46:25.942Z,8.73
2023-03-12T22:48:57.492Z,9.13
2023-03-12T22:51:26.191Z,10.57
2023-03-12T22:53:53.985Z,9.15
2023-03-12T22:56:21.952Z,12.05
2023-03-12T22:58:49.376Z,10.93
2023-03-12T23:01:20.217Z,7.53
2023-03-12T23:03:48.837Z,7.78
2023-03-12T23:06:19.108Z,11.93
2023-03-12T23:08:47.832Z,10.45
2023-03-12T23:11:16.666Z,10.23
2023-03-12T23:13:46.320Z,10.20
2023-03-12T23:16:19.175Z,10.63
2023-03-12T23:18:47.651Z,7.68
2023-03-12T23:21:19.580Z,9.60
2023-03-12T23:23:48.481Z,12.38
2023-03-12T23:26:23.487Z,9.25
2023-03-12T23:28:53.553Z,13.80
2023-03-12T23:31:21.666Z,10.35
2023-03-12T23:33:49.032Z,9.40
2023-03-12T23:36:20.481Z,11.50
2023-03-12T23:38:49.347Z,8.30
2023-03-12T23:41:24.077Z,14.90
2023-03-12T23:46:20.284Z,8.25
2023-03-12T23:48:48.864Z,13.73
2023-03-12T23:51:25.498Z,9.48
2023-03-12T23:53:58.195Z,12.32
2023-03-12T23:56:30.785Z,9.25
2023-03-12T23:58:58.057Z,13.10
